sensor_id;sensor_type;location;lat;lon;timestamp;pressure;altitude;pressure_sealevel;temperature;humidity
7966;BME280;4028;43.272;26.932;2022-12-29T00:01:39;100308.25;;;3.41;100.00
7966;BME280;4028;43.272;26.932;2022-12-29T00:04:06;100305.00;;;3.36;100.00
7966;BME280;4028;43.272;26.932;2022-12-29T00:06:31;100301.63;;;3.34;100.00
7966;BME280;4028;43.272;26.932;2022-12-29T00:08:57;100297.63;;;3.25;100.00
7966;BME280;4028;43.272;26.932;2022-12-29T00:11:24;100299.94;;;3.33;100.00
7966;BME280;4028;43.272;26.932;2022-12-29T00:13:51;100276.56;;;3.09;100.00
7966;BME280;4028;43.272;26.932;2022-12-29T00:16:35;100288.44;;;3.17;100.00
7966;BME280;4028;43.272;26.932;2022-12-29T00:19:02;100290.56;;;3.27;100.00
7966;BME280;4028;43.272;26.932;2022-12-29T00:21:28;100293.59;;;3.37;100.00
7966;BME280;4028;43.272;26.932;2022-12-29T00:24:18;100295.47;;;3.35;100.00
7966;BME280;4028;43.272;26.932;2022-12-29T00:29:45;100302.03;;;3.25;100.00
7966;BME280;4028;43.272;26.932;2022-12-29T00:32:29;100287.47;;;3.19;100.00
7966;BME280;4028;43.272;26.932;2022-12-29T00:35:21;100292.63;;;3.21;100.00
7966;BME280;4028;43.272;26.932;2022-12-29T00:37:48;100294.94;;;3.08;100.00
7966;BME280;4028;43.272;26.932;2022-12-29T00:40:32;100283.03;;;3.01;100.00
7966;BME280;4028;43.272;26.932;2022-12-29T00:43:15;100285.38;;;3.07;100.00
7966;BME280;4028;43.272;26.932;2022-12-29T00:45:59;100281.91;;;3.06;100.00
7966;BME280;4028;43.272;26.932;2022-12-29T00:48:25;100284.72;;;3.02;100.00
7966;BME280;4028;43.272;26.932;2022-12-29T00:51:09;100274.59;;;3.15;100.00
7966;BME280;4028;43.272;26.932;2022-12-29T00:53:34;100268.63;;;3.11;100.00
7966;BME280;4028;43.272;26.932;2022-12-29T00:56:00;100281.50;;;3.16;100.00
7966;BME280;4028;43.272;26.932;2022-12-29T00:58:29;100272.53;;;3.02;100.00
7966;BME280;4028;43.272;26.932;2022-12-29T01:01:06;100272.97;;;2.92;100.00
7966;BME280;4028;43.272;26.932;2022-12-29T01:03:33;100268.97;;;2.84;100.00
7966;BME280;4028;43.272;26.932;2022-12-29T01:06:07;100271.28;;;2.91;100.00
7966;BME280;4028;43.272;26.932;2022-12-29T01:08:34;100268.63;;;3.11;100.00
7966;BME280;4028;43.272;26.932;2022-12-29T01:11:05;100257.41;;;3.09;100.00
7966;BME280;4028;43.272;26.932;2022-12-29T01:13:31;100259.09;;;3.10;100.00
7966;BME280;4028;43.272;26.932;2022-12-29T01:15:56;100223.38;;;2.90;100.00
7966;BME280;4028;43.272;26.932;2022-12-29T01:18:23;100228.06;;;2.83;100.00
7966;BME280;4028;43.272;26.932;2022-12-29T01:20:48;100234.84;;;3.06;100.00
7966;BME280;4028;43.272;26.932;2022-12-29T01:23:14;100231.81;;;3.16;100.00
7966;BME280;4028;43.272;26.932;2022-12-29T01:25:39;100226.31;;;3.03;100.00
7966;BME280;4028;43.272;26.932;2022-12-29T01:28:05;100217.88;;;2.96;100.00
7966;BME280;4028;43.272;26.932;2022-12-29T01:30:34;100225.94;;;3.10;100.00
7966;BME280;4028;43.272;26.932;2022-12-29T01:32:59;100194.41;;;2.95;100.00
7966;BME280;4028;43.272;26.932;2022-12-29T01:35:25;100219.16;;;3.06;100.00
7966;BME280;4028;43.272;26.932;2022-12-29T01:37:50;100212.44;;;3.01;100.00
7966;BME280;4028;43.272;26.932;2022-12-29T01:40:16;100198.59;;;2.99;100.00
7966;BME280;4028;43.272;26.932;2022-12-29T01:42:41;100190.03;;;3.14;100.00
7966;BME280;4028;43.272;26.932;2022-12-29T01:45:14;100187.22;;;3.19;100.00
7966;BME280;4028;43.272;26.932;2022-12-29T01:47:53;100198.88;;;3.30;100.00
7966;BME280;4028;43.272;26.932;2022-12-29T01:50:28;100206.41;;;3.36;100.00
7966;BME280;4028;43.272;26.932;2022-12-29T01:53:17;100194.78;;;3.25;100.00
7966;BME280;4028;43.272;26.932;2022-12-29T01:55:50;100194.91;;;3.22;100.00
7966;BME280;4028;43.272;26.932;2022-12-29T01:58:20;100192.06;;;3.26;100.00
7966;BME280;4028;43.272;26.932;2022-12-29T02:00:47;100197.53;;;3.22;100.00
7966;BME280;4028;43.272;26.932;2022-12-29T02:03:13;100209.13;;;3.16;100.00
7966;BME280;4028;43.272;26.932;2022-12-29T02:05:47;100212.03;;;3.10;100.00
7966;BME280;4028;43.272;26.932;2022-12-29T02:08:16;100207.84;;;3.06;100.00
7966;BME280;4028;43.272;26.932;2022-12-29T02:10:42;100204.72;;;3.17;100.00
7966;BME280;4028;43.272;26.932;2022-12-29T02:13:09;100204.59;;;3.20;100.00
7966;BME280;4028;43.272;26.932;2022-12-29T02:29:19;100184.25;;;3.07;100.00
7966;BME280;4028;43.272;26.932;2022-12-29T02:32:07;100176.34;;;3.09;100.00
7966;BME280;4028;43.272;26.932;2022-12-29T02:37:22;100187.94;;;3.03;100.00
7966;BME280;4028;43.272;26.932;2022-12-29T02:40:37;100190.97;;;2.94;100.00
7966;BME280;4028;43.272;26.932;2022-12-29T02:43:14;100178.03;;;2.91;100.00
7966;BME280;4028;43.272;26.932;2022-12-29T02:45:54;100180.44;;;2.96;100.00
7966;BME280;4028;43.272;26.932;2022-12-29T02:48:27;100179.66;;;3.12;100.00
7966;BME280;4028;43.272;26.932;2022-12-29T02:51:03;100179.56;;;2.95;100.00
7966;BME280;4028;43.272;26.932;2022-12-29T02:53:32;100180.38;;;2.97;100.00
7966;BME280;4028;43.272;26.932;2022-12-29T02:56:17;100173.00;;;3.05;100.00
7966;BME280;4028;43.272;26.932;2022-12-29T02:58:42;100180.00;;;3.05;100.00
7966;BME280;4028;43.272;26.932;2022-12-29T03:04:09;100179.28;;;3.01;100.00
7966;BME280;4028;43.272;26.932;2022-12-29T03:07:12;100176.19;;;2.93;100.00
7966;BME280;4028;43.272;26.932;2022-12-29T03:09:58;100171.31;;;2.85;100.00
7966;BME280;4028;43.272;26.932;2022-12-29T03:12:38;100175.78;;;2.83;100.00
7966;BME280;4028;43.272;26.932;2022-12-29T03:16:35;100170.09;;;2.74;100.00
7966;BME280;4028;43.272;26.932;2022-12-29T03:24:08;100182.03;;;2.79;100.00
7966;BME280;4028;43.272;26.932;2022-12-29T03:26:35;100179.31;;;2.82;100.00
7966;BME280;4028;43.272;26.932;2022-12-29T03:29:01;100171.09;;;2.90;100.00
7966;BME280;4028;43.272;26.932;2022-12-29T03:31:27;100163.75;;;2.98;100.00
7966;BME280;4028;43.272;26.932;2022-12-29T03:33:55;100176.63;;;3.03;100.00
7966;BME280;4028;43.272;26.932;2022-12-29T03:36:30;100174.63;;;2.89;100.00
7966;BME280;4028;43.272;26.932;2022-12-29T03:39:09;100174.00;;;2.84;100.00
7966;BME280;4028;43.272;26.932;2022-12-29T03:41:38;100183.81;;;2.79;100.00
7966;BME280;4028;43.272;26.932;2022-12-29T03:44:06;100175.06;;;2.80;100.00
7966;BME280;4028;43.272;26.932;2022-12-29T03:46:32;100174.91;;;2.83;100.00
7966;BME280;4028;43.272;26.932;2022-12-29T03:48:58;100176.63;;;2.84;100.00
7966;BME280;4028;43.272;26.932;2022-12-29T03:51:23;100170.38;;;2.86;100.00
7966;BME280;4028;43.272;26.932;2022-12-29T03:53:49;100164.50;;;2.81;100.00
7966;BME280;4028;43.272;26.932;2022-12-29T03:56:14;100168.91;;;2.81;100.00
7966;BME280;4028;43.272;26.932;2022-12-29T03:58:39;100175.91;;;2.80;100.00
7966;BME280;4028;43.272;26.932;2022-12-29T04:01:05;100172.59;;;2.77;100.00
7966;BME280;4028;43.272;26.932;2022-12-29T04:03:31;100153.91;;;2.66;100.00
7966;BME280;4028;43.272;26.932;2022-12-29T04:05:56;100169.75;;;2.81;100.00
7966;BME280;4028;43.272;26.932;2022-12-29T04:08:21;100173.44;;;2.77;100.00
7966;BME280;4028;43.272;26.932;2022-12-29T04:10:48;100179.72;;;2.73;100.00
7966;BME280;4028;43.272;26.932;2022-12-29T04:13:14;100175.47;;;2.71;100.00
7966;BME280;4028;43.272;26.932;2022-12-29T04:15:39;100179.84;;;2.70;100.00
7966;BME280;4028;43.272;26.932;2022-12-29T04:18:06;100177.75;;;2.78;100.00
7966;BME280;4028;43.272;26.932;2022-12-29T04:20:32;100177.38;;;2.86;100.00
7966;BME280;4028;43.272;26.932;2022-12-29T04:23:16;100174.75;;;2.86;100.00
7966;BME280;4028;43.272;26.932;2022-12-29T04:25:45;100181.84;;;2.84;100.00
7966;BME280;4028;43.272;26.932;2022-12-29T04:28:12;100185.03;;;2.72;100.00
7966;BME280;4028;43.272;26.932;2022-12-29T04:30:37;100180.84;;;2.68;100.00
7966;BME280;4028;43.272;26.932;2022-12-29T04:33:03;100189.38;;;2.71;100.00
7966;BME280;4028;43.272;26.932;2022-12-29T04:35:28;100192.41;;;2.62;100.00
7966;BME280;4028;43.272;26.932;2022-12-29T04:37:54;100188.88;;;2.63;100.00
7966;BME280;4028;43.272;26.932;2022-12-29T04:40:19;100189.97;;;2.78;100.00
7966;BME280;4028;43.272;26.932;2022-12-29T04:42:45;100189.75;;;2.82;100.00
7966;BME280;4028;43.272;26.932;2022-12-29T04:45:10;100196.59;;;2.85;100.00
7966;BME280;4028;43.272;26.932;2022-12-29T04:47:36;100185.50;;;2.80;100.00
7966;BME280;4028;43.272;26.932;2022-12-29T04:50:02;100183.25;;;2.72;100.00
7966;BME280;4028;43.272;26.932;2022-12-29T04:52:28;100193.22;;;2.83;100.00
7966;BME280;4028;43.272;26.932;2022-12-29T04:54:53;100195.00;;;2.82;100.00
7966;BME280;4028;43.272;26.932;2022-12-29T04:57:19;100187.63;;;2.72;100.00
7966;BME280;4028;43.272;26.932;2022-12-29T04:59:44;100197.28;;;2.70;100.00
7966;BME280;4028;43.272;26.932;2022-12-29T05:02:10;100202.16;;;2.58;100.00
7966;BME280;4028;43.272;26.932;2022-12-29T05:04:35;100199.00;;;2.50;100.00
7966;BME280;4028;43.272;26.932;2022-12-29T05:07:00;100198.13;;;2.51;100.00
7966;BME280;4028;43.272;26.932;2022-12-29T05:09:26;100201.94;;;2.63;100.00
7966;BME280;4028;43.272;26.932;2022-12-29T05:11:51;100202.03;;;2.62;100.00
7966;BME280;4028;43.272;26.932;2022-12-29T05:14:17;100204.00;;;2.56;100.00
7966;BME280;4028;43.272;26.932;2022-12-29T05:16:42;100207.56;;;2.54;100.00
7966;BME280;4028;43.272;26.932;2022-12-29T05:19:08;100202.63;;;2.48;100.00
7966;BME280;4028;43.272;26.932;2022-12-29T05:21:33;100206.00;;;2.50;100.00
7966;BME280;4028;43.272;26.932;2022-12-29T05:23:59;100208.56;;;2.51;100.00
7966;BME280;4028;43.272;26.932;2022-12-29T05:26:24;100203.91;;;2.58;100.00
7966;BME280;4028;43.272;26.932;2022-12-29T05:28:50;100205.41;;;2.64;100.00
7966;BME280;4028;43.272;26.932;2022-12-29T05:31:15;100208.38;;;2.75;100.00
7966;BME280;4028;43.272;26.932;2022-12-29T05:33:41;100207.47;;;2.76;100.00
7966;BME280;4028;43.272;26.932;2022-12-29T05:36:08;100199.78;;;2.73;100.00
7966;BME280;4028;43.272;26.932;2022-12-29T05:38:34;100182.25;;;2.56;100.00
7966;BME280;4028;43.272;26.932;2022-12-29T05:41:00;100193.53;;;2.56;100.00
7966;BME280;4028;43.272;26.932;2022-12-29T05:43:25;100196.19;;;2.55;100.00
7966;BME280;4028;43.272;26.932;2022-12-29T05:45:51;100198.97;;;2.52;100.00
7966;BME280;4028;43.272;26.932;2022-12-29T05:48:17;100198.63;;;2.59;100.00
7966;BME280;4028;43.272;26.932;2022-12-29T05:50:47;100203.00;;;2.59;100.00
7966;BME280;4028;43.272;26.932;2022-12-29T05:53:13;100201.22;;;2.59;100.00
7966;BME280;4028;43.272;26.932;2022-12-29T05:55:38;100202.34;;;2.54;100.00
7966;BME280;4028;43.272;26.932;2022-12-29T05:58:04;100204.25;;;2.50;100.00
7966;BME280;4028;43.272;26.932;2022-12-29T06:00:29;100204.19;;;2.52;100.00
7966;BME280;4028;43.272;26.932;2022-12-29T06:02:54;100203.91;;;2.58;100.00
7966;BME280;4028;43.272;26.932;2022-12-29T06:05:20;100207.66;;;2.52;100.00
7966;BME280;4028;43.272;26.932;2022-12-29T06:07:45;100206.09;;;2.48;100.00
7966;BME280;4028;43.272;26.932;2022-12-29T06:10:11;100202.53;;;2.49;100.00
7966;BME280;4028;43.272;26.932;2022-12-29T06:12:37;100201.50;;;2.53;100.00
7966;BME280;4028;43.272;26.932;2022-12-29T06:15:03;100206.13;;;2.67;100.00
7966;BME280;4028;43.272;26.932;2022-12-29T06:17:28;100194.03;;;2.65;100.00
7966;BME280;4028;43.272;26.932;2022-12-29T06:19:54;100200.63;;;2.73;100.00
7966;BME280;4028;43.272;26.932;2022-12-29T06:22:19;100198.28;;;2.67;100.00
7966;BME280;4028;43.272;26.932;2022-12-29T06:24:45;100201.88;;;2.65;100.00
7966;BME280;4028;43.272;26.932;2022-12-29T06:27:10;100205.34;;;2.65;100.00
7966;BME280;4028;43.272;26.932;2022-12-29T06:29:36;100202.72;;;2.65;100.00
7966;BME280;4028;43.272;26.932;2022-12-29T06:32:03;100205.13;;;2.70;100.00
7966;BME280;4028;43.272;26.932;2022-12-29T06:34:28;100212.56;;;2.79;100.00
7966;BME280;4028;43.272;26.932;2022-12-29T06:36:54;100207.34;;;2.79;100.00
7966;BME280;4028;43.272;26.932;2022-12-29T06:39:20;100207.22;;;2.82;100.00
7966;BME280;4028;43.272;26.932;2022-12-29T06:41:45;100204.66;;;2.80;100.00
7966;BME280;4028;43.272;26.932;2022-12-29T06:44:11;100212.44;;;2.82;100.00
7966;BME280;4028;43.272;26.932;2022-12-29T06:46:37;100217.03;;;2.96;100.00
7966;BME280;4028;43.272;26.932;2022-12-29T06:49:02;100214.38;;;2.97;100.00
7966;BME280;4028;43.272;26.932;2022-12-29T06:51:28;100216.25;;;2.94;100.00
7966;BME280;4028;43.272;26.932;2022-12-29T06:53:53;100218.97;;;2.92;100.00
7966;BME280;4028;43.272;26.932;2022-12-29T06:56:19;100216.91;;;2.99;100.00
7966;BME280;4028;43.272;26.932;2022-12-29T06:58:44;100214.84;;;3.05;100.00
7966;BME280;4028;43.272;26.932;2022-12-29T07:01:10;100218.72;;;3.16;100.00
7966;BME280;4028;43.272;26.932;2022-12-29T07:03:35;100224.75;;;3.18;100.00
7966;BME280;4028;43.272;26.932;2022-12-29T07:06:01;100226.38;;;3.20;100.00
7966;BME280;4028;43.272;26.932;2022-12-29T07:08:26;100228.91;;;3.22;100.00
7966;BME280;4028;43.272;26.932;2022-12-29T07:10:52;100224.53;;;3.22;100.00
7966;BME280;4028;43.272;26.932;2022-12-29T07:13:17;100231.09;;;3.31;100.00
7966;BME280;4028;43.272;26.932;2022-12-29T07:15:43;100236.41;;;3.48;100.00
7966;BME280;4028;43.272;26.932;2022-12-29T07:18:08;100241.13;;;3.59;100.00
7966;BME280;4028;43.272;26.932;2022-12-29T07:20:34;100236.94;;;3.74;100.00
7966;BME280;4028;43.272;26.932;2022-12-29T07:22:59;100245.25;;;3.82;100.00
7966;BME280;4028;43.272;26.932;2022-12-29T07:25:25;100242.81;;;3.96;100.00
7966;BME280;4028;43.272;26.932;2022-12-29T07:27:50;100239.41;;;3.94;100.00
7966;BME280;4028;43.272;26.932;2022-12-29T07:30:16;100240.88;;;3.82;100.00
7966;BME280;4028;43.272;26.932;2022-12-29T07:32:42;100230.56;;;3.97;100.00
7966;BME280;4028;43.272;26.932;2022-12-29T07:35:08;100231.28;;;4.17;100.00
7966;BME280;4028;43.272;26.932;2022-12-29T07:37:34;100248.22;;;4.28;100.00
7966;BME280;4028;43.272;26.932;2022-12-29T07:40:00;100236.69;;;4.32;100.00
7966;BME280;4028;43.272;26.932;2022-12-29T07:42:26;100234.75;;;4.35;100.00
7966;BME280;4028;43.272;26.932;2022-12-29T07:44:52;100235.13;;;4.28;100.00
7966;BME280;4028;43.272;26.932;2022-12-29T07:47:19;100234.44;;;4.41;100.00
7966;BME280;4028;43.272;26.932;2022-12-29T07:49:44;100233.97;;;4.51;100.00
7966;BME280;4028;43.272;26.932;2022-12-29T07:52:10;100230.41;;;4.52;100.00
7966;BME280;4028;43.272;26.932;2022-12-29T07:54:35;100241.75;;;4.52;100.00
7966;BME280;4028;43.272;26.932;2022-12-29T07:57:01;100220.69;;;4.54;100.00
7966;BME280;4028;43.272;26.932;2022-12-29T07:59:26;100238.75;;;4.76;100.00
7966;BME280;4028;43.272;26.932;2022-12-29T08:01:52;100234.66;;;4.87;100.00
7966;BME280;4028;43.272;26.932;2022-12-29T08:04:17;100232.78;;;5.07;100.00
7966;BME280;4028;43.272;26.932;2022-12-29T08:06:43;100227.53;;;5.38;100.00
7966;BME280;4028;43.272;26.932;2022-12-29T08:09:10;100228.69;;;5.80;100.00
7966;BME280;4028;43.272;26.932;2022-12-29T08:11:36;100230.78;;;6.35;100.00
7966;BME280;4028;43.272;26.932;2022-12-29T08:14:02;100226.03;;;6.99;100.00
7966;BME280;4028;43.272;26.932;2022-12-29T08:16:28;100225.75;;;7.59;100.00
7966;BME280;4028;43.272;26.932;2022-12-29T08:18:53;100223.81;;;8.02;100.00
7966;BME280;4028;43.272;26.932;2022-12-29T08:21:19;100220.91;;;8.32;100.00
7966;BME280;4028;43.272;26.932;2022-12-29T08:23:44;100225.72;;;8.53;100.00
7966;BME280;4028;43.272;26.932;2022-12-29T08:26:10;100235.97;;;8.57;100.00
7966;BME280;4028;43.272;26.932;2022-12-29T08:28:36;100227.19;;;8.70;100.00
7966;BME280;4028;43.272;26.932;2022-12-29T08:31:02;100231.53;;;8.96;100.00
7966;BME280;4028;43.272;26.932;2022-12-29T08:33:29;100224.66;;;9.06;100.00
7966;BME280;4028;43.272;26.932;2022-12-29T08:36:02;100222.81;;;9.20;100.00
7966;BME280;4028;43.272;26.932;2022-12-29T08:38:29;100212.66;;;9.39;100.00
7966;BME280;4028;43.272;26.932;2022-12-29T08:40:56;100205.16;;;9.33;100.00
7966;BME280;4028;43.272;26.932;2022-12-29T08:43:22;100204.16;;;9.47;100.00
7966;BME280;4028;43.272;26.932;2022-12-29T08:45:48;100204.34;;;9.56;100.00
7966;BME280;4028;43.272;26.932;2022-12-29T08:48:13;100205.44;;;9.41;100.00
7966;BME280;4028;43.272;26.932;2022-12-29T08:50:43;100207.19;;;9.29;100.00
7966;BME280;4028;43.272;26.932;2022-12-29T08:53:08;100202.66;;;9.19;100.00
7966;BME280;4028;43.272;26.932;2022-12-29T08:55:34;100201.31;;;9.13;100.00
7966;BME280;4028;43.272;26.932;2022-12-29T08:58:00;100208.22;;;8.77;100.00
7966;BME280;4028;43.272;26.932;2022-12-29T09:00:25;100203.88;;;8.76;100.00
7966;BME280;4028;43.272;26.932;2022-12-29T09:02:51;100203.25;;;8.85;100.00
7966;BME280;4028;43.272;26.932;2022-12-29T09:05:17;100198.38;;;8.79;100.00
7966;BME280;4028;43.272;26.932;2022-12-29T09:07:42;100198.28;;;8.94;100.00
7966;BME280;4028;43.272;26.932;2022-12-29T09:10:08;100195.81;;;9.03;100.00
7966;BME280;4028;43.272;26.932;2022-12-29T09:12:34;100189.31;;;8.96;100.00
7966;BME280;4028;43.272;26.932;2022-12-29T09:14:59;100184.94;;;9.08;100.00
7966;BME280;4028;43.272;26.932;2022-12-29T09:17:25;100178.84;;;9.31;100.00
7966;BME280;4028;43.272;26.932;2022-12-29T09:20:10;100167.00;;;9.85;100.00
7966;BME280;4028;43.272;26.932;2022-12-29T09:22:36;100167.53;;;10.25;100.00
7966;BME280;4028;43.272;26.932;2022-12-29T09:25:02;100163.50;;;10.20;100.00
7966;BME280;4028;43.272;26.932;2022-12-29T09:27:28;100163.78;;;10.28;100.00
7966;BME280;4028;43.272;26.932;2022-12-29T09:29:55;100164.06;;;10.47;100.00
7966;BME280;4028;43.272;26.932;2022-12-29T09:32:21;100160.22;;;10.74;99.87
7966;BME280;4028;43.272;26.932;2022-12-29T09:34:46;100156.34;;;11.00;95.20
7966;BME280;4028;43.272;26.932;2022-12-29T09:37:12;100159.72;;;11.13;89.00
7966;BME280;4028;43.272;26.932;2022-12-29T09:39:37;100156.69;;;11.29;87.50
7966;BME280;4028;43.272;26.932;2022-12-29T09:45:18;100149.16;;;11.57;80.07
7966;BME280;4028;43.272;26.932;2022-12-29T09:47:46;100142.13;;;11.67;78.08
7966;BME280;4028;43.272;26.932;2022-12-29T09:53:03;100135.41;;;11.63;78.68
7966;BME280;4028;43.272;26.932;2022-12-29T09:55:47;100134.31;;;11.22;85.70
7966;BME280;4028;43.272;26.932;2022-12-29T10:00:56;100132.75;;;10.19;100.00
7966;BME280;4028;43.272;26.932;2022-12-29T10:03:32;100131.81;;;9.96;100.00
7966;BME280;4028;43.272;26.932;2022-12-29T10:06:15;100127.06;;;9.77;100.00
7966;BME280;4028;43.272;26.932;2022-12-29T10:09:02;100123.81;;;9.73;100.00
7966;BME280;4028;43.272;26.932;2022-12-29T10:20:17;100117.66;;;9.37;100.00
7966;BME280;4028;43.272;26.932;2022-12-29T10:23:06;100114.94;;;9.26;100.00
7966;BME280;4028;43.272;26.932;2022-12-29T10:25:39;100119.63;;;9.23;100.00
7966;BME280;4028;43.272;26.932;2022-12-29T10:28:22;100100.72;;;9.16;100.00
7966;BME280;4028;43.272;26.932;2022-12-29T10:30:50;100108.31;;;9.21;100.00
7966;BME280;4028;43.272;26.932;2022-12-29T10:33:23;100102.00;;;9.10;100.00
7966;BME280;4028;43.272;26.932;2022-12-29T10:35:51;100087.75;;;9.13;100.00
7966;BME280;4028;43.272;26.932;2022-12-29T10:39:03;100100.72;;;9.16;100.00
7966;BME280;4028;43.272;26.932;2022-12-29T10:41:28;100104.88;;;9.31;100.00
7966;BME280;4028;43.272;26.932;2022-12-29T10:43:59;100099.28;;;9.36;100.00
7966;BME280;4028;43.272;26.932;2022-12-29T10:46:30;100097.72;;;9.33;100.00
7966;BME280;4028;43.272;26.932;2022-12-29T10:48:58;100091.34;;;9.36;100.00
7966;BME280;4028;43.272;26.932;2022-12-29T10:51:36;100100.41;;;9.45;100.00
7966;BME280;4028;43.272;26.932;2022-12-29T10:54:06;100086.56;;;9.41;100.00
7966;BME280;4028;43.272;26.932;2022-12-29T10:56:40;100096.25;;;9.53;100.00
7966;BME280;4028;43.272;26.932;2022-12-29T10:59:20;100090.13;;;9.53;100.00
7966;BME280;4028;43.272;26.932;2022-12-29T11:07:35;100072.31;;;9.44;100.00
7966;BME280;4028;43.272;26.932;2022-12-29T11:10:21;100079.63;;;9.51;100.00
7966;BME280;4028;43.272;26.932;2022-12-29T11:13:10;100087.00;;;9.59;100.00
7966;BME280;4028;43.272;26.932;2022-12-29T11:15:44;100078.81;;;9.51;100.00
7966;BME280;4028;43.272;26.932;2022-12-29T11:18:39;100076.06;;;9.52;100.00
7966;BME280;4028;43.272;26.932;2022-12-29T11:26:24;100076.25;;;9.38;100.00
7966;BME280;4028;43.272;26.932;2022-12-29T11:31:41;100069.91;;;9.52;100.00
7966;BME280;4028;43.272;26.932;2022-12-29T11:34:07;100077.28;;;9.35;100.00
7966;BME280;4028;43.272;26.932;2022-12-29T11:36:34;100068.66;;;9.33;100.00
7966;BME280;4028;43.272;26.932;2022-12-29T11:39:01;100064.75;;;9.26;100.00
7966;BME280;4028;43.272;26.932;2022-12-29T11:41:29;100063.88;;;9.38;100.00
7966;BME280;4028;43.272;26.932;2022-12-29T11:43:58;100067.31;;;9.28;100.00
7966;BME280;4028;43.272;26.932;2022-12-29T11:46:29;100064.50;;;9.42;100.00
7966;BME280;4028;43.272;26.932;2022-12-29T11:48:57;100066.63;;;9.37;100.00
7966;BME280;4028;43.272;26.932;2022-12-29T11:51:41;100066.00;;;9.33;100.00
7966;BME280;4028;43.272;26.932;2022-12-29T11:54:14;100062.44;;;9.46;100.00
7966;BME280;4028;43.272;26.932;2022-12-29T11:56:43;100057.00;;;9.36;100.00
7966;BME280;4028;43.272;26.932;2022-12-29T12:01:53;100045.25;;;9.40;100.00
7966;BME280;4028;43.272;26.932;2022-12-29T12:04:21;100045.13;;;9.42;100.00
7966;BME280;4028;43.272;26.932;2022-12-29T12:07:02;100034.22;;;9.46;100.00
7966;BME280;4028;43.272;26.932;2022-12-29T12:09:51;100030.19;;;9.53;100.00
7966;BME280;4028;43.272;26.932;2022-12-29T12:12:34;100038.91;;;9.43;100.00
7966;BME280;4028;43.272;26.932;2022-12-29T12:15:02;100031.16;;;9.52;100.00
7966;BME280;4028;43.272;26.932;2022-12-29T12:17:37;100026.59;;;9.54;100.00
7966;BME280;4028;43.272;26.932;2022-12-29T12:25:38;100017.94;;;9.52;100.00
7966;BME280;4028;43.272;26.932;2022-12-29T12:28:26;100019.50;;;9.55;100.00
7966;BME280;4028;43.272;26.932;2022-12-29T12:30:57;100011.94;;;9.61;100.00
7966;BME280;4028;43.272;26.932;2022-12-29T12:33:41;100023.84;;;9.67;100.00
7966;BME280;4028;43.272;26.932;2022-12-29T12:47:58;100025.44;;;9.81;100.00
7966;BME280;4028;43.272;26.932;2022-12-29T13:14:51;100019.22;;;9.93;100.00
7966;BME280;4028;43.272;26.932;2022-12-29T13:17:36;100015.13;;;9.89;100.00
7966;BME280;4028;43.272;26.932;2022-12-29T13:39:08;100019.50;;;9.66;100.00
7966;BME280;4028;43.272;26.932;2022-12-29T13:41:43;100014.22;;;9.55;100.00
7966;BME280;4028;43.272;26.932;2022-12-29T13:44:16;100017.88;;;9.41;100.00
7966;BME280;4028;43.272;26.932;2022-12-29T13:46:44;100017.78;;;9.43;100.00
7966;BME280;4028;43.272;26.932;2022-12-29T13:49:22;100013.56;;;9.40;100.00
7966;BME280;4028;43.272;26.932;2022-12-29T13:52:02;100009.78;;;9.31;100.00
7966;BME280;4028;43.272;26.932;2022-12-29T13:54:35;100017.97;;;9.28;100.00
7966;BME280;4028;43.272;26.932;2022-12-29T13:59:49;100012.03;;;9.14;100.00
7966;BME280;4028;43.272;26.932;2022-12-29T14:03:04;100009.34;;;9.02;100.00
7966;BME280;4028;43.272;26.932;2022-12-29T14:05:36;100015.13;;;9.07;100.00
7966;BME280;4028;43.272;26.932;2022-12-29T14:08:04;100013.00;;;9.13;100.00
7966;BME280;4028;43.272;26.932;2022-12-29T14:10:37;100024.34;;;9.02;100.00
7966;BME280;4028;43.272;26.932;2022-12-29T14:13:18;100023.88;;;9.08;100.00
7966;BME280;4028;43.272;26.932;2022-12-29T14:15:52;100026.53;;;9.08;100.00
7966;BME280;4028;43.272;26.932;2022-12-29T14:18:23;100022.03;;;8.97;100.00
7966;BME280;4028;43.272;26.932;2022-12-29T14:23:41;100023.66;;;8.87;100.00
7966;BME280;4028;43.272;26.932;2022-12-29T14:28:41;100023.78;;;8.85;100.00
7966;BME280;4028;43.272;26.932;2022-12-29T14:33:39;100036.69;;;8.65;100.00
7966;BME280;4028;43.272;26.932;2022-12-29T14:36:25;100028.00;;;8.51;100.00
7966;BME280;4028;43.272;26.932;2022-12-29T14:38:58;100023.03;;;8.47;100.00
7966;BME280;4028;43.272;26.932;2022-12-29T14:47:07;100030.63;;;8.39;100.00
7966;BME280;4028;43.272;26.932;2022-12-29T14:49:41;100034.63;;;8.31;100.00
7966;BME280;4028;43.272;26.932;2022-12-29T14:52:28;100026.00;;;8.17;100.00
7966;BME280;4028;43.272;26.932;2022-12-29T14:54:58;100031.72;;;8.11;100.00
7966;BME280;4028;43.272;26.932;2022-12-29T14:57:58;100036.34;;;8.07;100.00
7966;BME280;4028;43.272;26.932;2022-12-29T15:00:41;100020.75;;;8.04;100.00
7966;BME280;4028;43.272;26.932;2022-12-29T15:05:56;100038.03;;;7.95;100.00
7966;BME280;4028;43.272;26.932;2022-12-29T15:08:30;100029.38;;;7.93;100.00
7966;BME280;4028;43.272;26.932;2022-12-29T15:11:01;100034.03;;;7.90;100.00
7966;BME280;4028;43.272;26.932;2022-12-29T15:13:39;100033.63;;;7.96;100.00
7966;BME280;4028;43.272;26.932;2022-12-29T15:18:45;100035.19;;;7.86;100.00
7966;BME280;4028;43.272;26.932;2022-12-29T15:21:12;100033.28;;;7.88;100.00
7966;BME280;4028;43.272;26.932;2022-12-29T15:23:39;100026.00;;;7.91;100.00
7966;BME280;4028;43.272;26.932;2022-12-29T15:26:08;100030.88;;;7.85;100.00
7966;BME280;4028;43.272;26.932;2022-12-29T15:28:46;100017.97;;;7.67;100.00
7966;BME280;4028;43.272;26.932;2022-12-29T15:31:15;100036.75;;;7.75;100.00
7966;BME280;4028;43.272;26.932;2022-12-29T15:33:43;100028.13;;;7.73;100.00
7966;BME280;4028;43.272;26.932;2022-12-29T15:36:12;100031.50;;;7.63;100.00
7966;BME280;4028;43.272;26.932;2022-12-29T15:38:38;100027.25;;;7.47;100.00
7966;BME280;4028;43.272;26.932;2022-12-29T15:41:22;100033.69;;;7.56;100.00